Talleys Crossing, North Carolina
Current Conditions -  °F | °C
As of 9:13 PM on Monday 22 Dec 2014 (Local Time) from KGSO Reporting Station
Haze Haze  
Wind Chill: 31°   Ceiling: 300
Heat Index: 36°   Visibility: 2mi
Dew Point: 34°   Wind: 6mph
Humidity: 93%   Direction: 30°NNE
Pressure: 30.05"   Gusts: NA
Location:  36.1188°N, 80.075°W
Report Text: KGSO 230213Z 03005KT 2SM BR OVC003 02/01 A3005 RMK AO2 DZE11 P0000
Loading
Personal Weather Stations






























Interactive Weather Map New forecast layout! Learn more

10-Day Weather Forecast

Advertisements
Track Severe Weather on mobile